createdAt,value
2022-11-17T00:02:14.022Z,9.00
2022-11-17T00:04:45.936Z,9.00
2022-11-17T00:07:17.848Z,9.10
2022-11-17T00:09:49.730Z,9.10
2022-11-17T00:12:39.989Z,9.10
2022-11-17T00:15:11.856Z,9.10
2022-11-17T00:17:43.677Z,9.20
2022-11-17T00:20:34.371Z,9.20
2022-11-17T00:23:06.892Z,9.20
2022-11-17T00:25:38.734Z,9.20
2022-11-17T00:28:10.997Z,9.30
2022-11-17T00:31:01.318Z,9.20
2022-11-17T00:33:51.634Z,9.10
2022-11-17T00:36:25.844Z,9.00
2022-11-17T00:38:57.684Z,8.90
2022-11-17T00:41:29.656Z,8.90
2022-11-17T00:44:01.761Z,8.80
2022-11-17T00:46:34.386Z,8.60
2022-11-17T00:49:07.504Z,8.60
2022-11-17T00:51:39.454Z,8.60
2022-11-17T00:54:13.082Z,8.50
2022-11-17T00:56:44.986Z,8.60
2022-11-17T00:59:16.931Z,8.60
2022-11-17T01:01:49.139Z,8.60
2022-11-17T01:04:21.153Z,8.60
2022-11-17T01:06:53.041Z,8.60
2022-11-17T01:09:25.026Z,8.70
2022-11-17T01:11:56.901Z,8.70
2022-11-17T01:14:30.330Z,8.60
2022-11-17T01:17:02.206Z,8.60
2022-11-17T01:19:34.110Z,8.60
2022-11-17T01:22:06.799Z,8.50
2022-11-17T01:24:38.657Z,8.60
2022-11-17T01:27:10.488Z,8.60
2022-11-17T01:29:42.349Z,8.50
2022-11-17T01:32:14.185Z,8.50
2022-11-17T01:34:46.942Z,8.50
2022-11-17T01:37:21.590Z,8.60
2022-11-17T01:39:53.516Z,8.60
2022-11-17T01:42:27.001Z,8.60
2022-11-17T01:45:05.490Z,8.50
2022-11-17T01:47:50.710Z,8.40
2022-11-17T01:50:28.336Z,8.40
2022-11-17T01:53:04.239Z,8.40
2022-11-17T01:55:42.891Z,8.40
2022-11-17T01:58:21.212Z,8.30
2022-11-17T02:00:55.446Z,8.30
2022-11-17T02:03:28.663Z,8.30
2022-11-17T02:06:07.713Z,8.30
2022-11-17T02:08:42.833Z,8.30
2022-11-17T02:11:18.191Z,8.40
2022-11-17T02:13:53.469Z,8.30
2022-11-17T02:16:25.373Z,8.30
2022-11-17T02:18:57.344Z,8.20
2022-11-17T02:22:20.323Z,8.20
2022-11-17T02:25:24.287Z,8.20
2022-11-17T02:28:22.930Z,8.20
2022-11-17T02:31:08.069Z,8.20
2022-11-17T02:34:01.223Z,8.20
2022-11-17T02:36:50.313Z,8.30
2022-11-17T02:39:30.123Z,8.40
2022-11-17T02:42:11.401Z,8.40
2022-11-17T02:44:47.905Z,8.60
2022-11-17T02:47:27.586Z,8.50
2022-11-17T02:50:02.873Z,8.50
2022-11-17T02:52:34.964Z,8.60
2022-11-17T02:55:10.328Z,8.50
2022-11-17T02:57:42.237Z,8.50
2022-11-17T03:00:18.874Z,8.40
2022-11-17T03:03:26.179Z,8.30
2022-11-17T03:06:06.845Z,8.40
2022-11-17T03:08:51.237Z,8.30
2022-11-17T03:11:33.372Z,8.30
2022-11-17T03:14:09.993Z,8.40
2022-11-17T03:17:07.731Z,8.40
2022-11-17T03:19:47.292Z,8.40
2022-11-17T03:22:41.734Z,8.40
2022-11-17T03:25:19.763Z,8.40
2022-11-17T03:27:57.264Z,8.50
2022-11-17T03:30:36.182Z,8.50
2022-11-17T03:33:15.492Z,8.40
2022-11-17T03:36:17.903Z,8.40
2022-11-17T03:39:08.195Z,8.40
2022-11-17T03:41:45.140Z,8.30
2022-11-17T03:44:20.778Z,8.30
2022-11-17T03:46:55.865Z,8.40
2022-11-17T03:49:51.509Z,8.50
2022-11-17T03:52:25.164Z,8.50
2022-11-17T03:54:57.418Z,8.50
2022-11-17T03:57:56.509Z,8.50
2022-11-17T04:00:28.455Z,8.60
2022-11-17T04:03:00.601Z,8.50
2022-11-17T04:05:32.501Z,8.50
2022-11-17T04:08:04.511Z,8.50
2022-11-17T04:10:56.365Z,8.50
2022-11-17T04:13:46.893Z,8.50
2022-11-17T04:16:18.667Z,8.60
2022-11-17T04:18:54.438Z,8.60
2022-11-17T04:21:29.358Z,8.70
2022-11-17T04:24:01.320Z,8.80
2022-11-17T04:26:51.962Z,8.90
2022-11-17T04:29:23.883Z,8.80
2022-11-17T04:31:55.782Z,8.80
2022-11-17T04:34:27.652Z,8.80
2022-11-17T04:37:03.866Z,8.90
2022-11-17T04:39:38.980Z,8.90
2022-11-17T04:42:10.893Z,8.90
2022-11-17T04:44:42.990Z,8.90
2022-11-17T04:47:14.821Z,8.90
2022-11-17T04:49:46.715Z,8.80
2022-11-17T04:52:18.595Z,8.70
2022-11-17T04:54:57.217Z,8.50
2022-11-17T04:57:29.678Z,8.40
2022-11-17T05:00:01.556Z,8.40
2022-11-17T05:02:33.564Z,8.20
2022-11-17T05:05:06.092Z,8.20
2022-11-17T05:07:38.012Z,8.10
2022-11-17T05:10:10.934Z,8.10
2022-11-17T05:13:01.255Z,8.10
2022-11-17T05:15:51.498Z,8.10
2022-11-17T05:18:23.318Z,8.10
2022-11-17T05:21:01.124Z,8.10
2022-11-17T05:23:51.797Z,8.10
2022-11-17T05:26:31.327Z,8.10
2022-11-17T05:29:05.624Z,8.20
2022-11-17T05:31:37.757Z,8.10
2022-11-17T05:34:12.556Z,8.10
2022-11-17T05:36:44.954Z,8.10
2022-11-17T05:39:16.879Z,8.10
2022-11-17T05:41:48.784Z,8.00
2022-11-17T05:44:20.653Z,7.90
2022-11-17T05:46:52.507Z,7.80
2022-11-17T05:49:24.530Z,7.70
2022-11-17T05:51:56.386Z,7.60
2022-11-17T05:54:28.224Z,7.60
2022-11-17T05:57:06.128Z,7.70
2022-11-17T05:59:46.938Z,7.80
2022-11-17T06:02:33.161Z,7.80
2022-11-17T06:05:06.112Z,7.90
2022-11-17T06:07:38.838Z,8.00
2022-11-17T06:10:10.764Z,8.10
2022-11-17T06:12:42.687Z,8.30
2022-11-17T06:15:14.820Z,8.40
2022-11-17T06:17:55.143Z,8.50
2022-11-17T06:20:31.320Z,8.50
2022-11-17T06:23:06.151Z,8.40
2022-11-17T06:25:39.213Z,8.40
2022-11-17T06:28:13.735Z,8.40
2022-11-17T06:30:48.627Z,8.40
2022-11-17T06:33:20.794Z,8.50
2022-11-17T06:35:52.913Z,8.50
2022-11-17T06:38:24.815Z,8.50
2022-11-17T06:40:56.736Z,8.50
2022-11-17T06:43:28.591Z,8.50
2022-11-17T06:46:05.363Z,8.60
2022-11-17T06:48:37.926Z,8.70
2022-11-17T06:51:10.278Z,8.70
2022-11-17T06:53:42.149Z,8.80
2022-11-17T06:56:14.046Z,8.90
2022-11-17T06:58:45.959Z,8.90
2022-11-17T07:01:17.828Z,8.90
2022-11-17T07:03:49.793Z,8.90
2022-11-17T07:06:22.341Z,9.00
2022-11-17T07:08:54.546Z,9.10
2022-11-17T07:11:26.415Z,9.10
2022-11-17T07:13:58.497Z,9.20
2022-11-17T07:16:31.180Z,9.20
2022-11-17T07:19:03.766Z,9.30
2022-11-17T07:21:36.404Z,9.50
2022-11-17T07:24:08.736Z,9.70
2022-11-17T07:26:40.789Z,9.80
2022-11-17T07:29:12.715Z,9.90
2022-11-17T07:31:44.556Z,9.80
2022-11-17T07:34:16.541Z,9.60
2022-11-17T07:36:48.515Z,9.40
2022-11-17T07:39:21.980Z,9.20
2022-11-17T07:41:53.912Z,9.10
2022-11-17T07:44:25.868Z,9.20
2022-11-17T07:46:57.925Z,9.20
2022-11-17T07:49:29.872Z,9.30
2022-11-17T07:52:01.833Z,9.40
2022-11-17T07:54:33.746Z,9.40
2022-11-17T07:57:05.659Z,9.40
2022-11-17T07:59:37.733Z,9.40
2022-11-17T08:02:14.090Z,9.40
2022-11-17T08:04:45.980Z,9.40
2022-11-17T08:07:18.123Z,9.30
2022-11-17T08:09:50.184Z,9.30
2022-11-17T08:12:22.186Z,9.30
2022-11-17T08:14:54.154Z,9.40
2022-11-17T08:17:26.153Z,9.50
2022-11-17T08:19:58.098Z,9.70
2022-11-17T08:22:31.654Z,9.80
2022-11-17T08:25:04.130Z,9.90
2022-11-17T08:27:36.633Z,9.90
2022-11-17T08:30:09.622Z,10.00
2022-11-17T08:32:48.302Z,10.00
2022-11-17T08:35:23.304Z,10.00
2022-11-17T08:37:55.619Z,10.20
2022-11-17T08:40:27.666Z,10.30
2022-11-17T08:43:01.487Z,10.30
2022-11-17T08:45:33.913Z,10.40
2022-11-17T08:48:07.533Z,10.40
2022-11-17T08:50:39.597Z,10.40
2022-11-17T08:53:16.771Z,10.40
2022-11-17T08:55:49.306Z,10.40
2022-11-17T08:58:21.600Z,10.90
2022-11-17T09:00:53.651Z,11.50
2022-11-17T09:03:25.608Z,12.00
2022-11-17T09:05:57.643Z,12.50
2022-11-17T09:08:45.117Z,12.80
2022-11-17T09:11:18.595Z,13.10
2022-11-17T09:13:50.697Z,13.40
2022-11-17T09:16:24.115Z,13.70
2022-11-17T09:18:58.379Z,14.20
2022-11-17T09:21:32.461Z,14.20
2022-11-17T09:24:04.828Z,14.30
2022-11-17T09:26:40.789Z,14.40
2022-11-17T09:29:12.847Z,14.40
2022-11-17T09:31:44.852Z,14.70
2022-11-17T09:34:17.269Z,15.00
2022-11-17T09:36:49.660Z,15.50
2022-11-17T09:39:21.809Z,15.70
2022-11-17T09:41:56.126Z,15.70
2022-11-17T09:44:40.460Z,15.30
2022-11-17T09:47:34.660Z,14.70
2022-11-17T09:50:33.557Z,14.40
2022-11-17T09:53:28.413Z,14.50
2022-11-17T09:56:06.592Z,14.40
2022-11-17T09:58:52.258Z,14.40
2022-11-17T10:01:27.648Z,13.80
2022-11-17T10:04:01.429Z,13.40
2022-11-17T10:06:33.697Z,12.90
2022-11-17T10:09:11.826Z,12.50
2022-11-17T10:11:44.699Z,12.20
2022-11-17T10:14:19.032Z,12.20
2022-11-17T10:16:56.704Z,12.30
2022-11-17T10:19:32.137Z,12.00
2022-11-17T10:22:03.995Z,11.90
2022-11-17T10:24:50.948Z,11.90
2022-11-17T10:27:26.128Z,11.70
2022-11-17T10:30:20.268Z,11.60
2022-11-17T10:32:57.017Z,11.70
2022-11-17T10:35:34.253Z,11.80
2022-11-17T10:38:14.360Z,11.90
2022-11-17T10:40:51.926Z,11.80
2022-11-17T10:43:36.940Z,11.90
2022-11-17T10:46:17.032Z,12.10
2022-11-17T10:49:01.280Z,12.30
2022-11-17T10:51:34.607Z,12.50
2022-11-17T10:54:13.907Z,12.60
2022-11-17T10:56:50.036Z,12.70
2022-11-17T10:59:41.396Z,12.60
2022-11-17T11:02:25.105Z,12.70
2022-11-17T11:05:12.098Z,12.60
2022-11-17T11:07:44.560Z,12.60
2022-11-17T11:10:32.688Z,12.70
2022-11-17T11:13:10.396Z,13.10
2022-11-17T11:15:42.547Z,13.30
2022-11-17T11:18:16.908Z,13.30
2022-11-17T11:21:19.308Z,13.50
2022-11-17T11:24:00.885Z,13.70
2022-11-17T11:26:41.678Z,13.60
2022-11-17T11:29:42.321Z,13.50
2022-11-17T11:32:38.593Z,13.50
2022-11-17T11:35:38.354Z,13.50
2022-11-17T11:38:35.033Z,13.50
2022-11-17T11:41:28.011Z,13.80
2022-11-17T11:44:22.784Z,13.80
2022-11-17T11:47:32.109Z,13.80
2022-11-17T11:50:13.986Z,13.80
2022-11-17T11:52:53.493Z,13.80
2022-11-17T11:55:32.250Z,13.90
2022-11-17T11:58:21.369Z,13.90
2022-11-17T12:01:08.961Z,13.90
2022-11-17T12:04:12.575Z,14.00
2022-11-17T12:07:12.132Z,14.10
2022-11-17T12:10:11.177Z,14.00
2022-11-17T12:12:46.631Z,14.00
2022-11-17T12:15:19.041Z,13.90
2022-11-17T12:18:06.325Z,13.90
2022-11-17T12:20:59.029Z,14.00
2022-11-17T12:23:42.651Z,13.90
2022-11-17T12:26:24.351Z,13.80
2022-11-17T12:29:21.273Z,13.70
2022-11-17T12:31:58.312Z,13.50
2022-11-17T12:34:32.985Z,13.50
2022-11-17T12:37:20.227Z,13.50
2022-11-17T12:40:05.451Z,13.60
2022-11-17T12:42:57.454Z,13.60
2022-11-17T12:45:30.233Z,13.70
2022-11-17T12:48:31.901Z,13.40
2022-11-17T12:51:10.196Z,13.30
2022-11-17T12:53:58.705Z,13.30
2022-11-17T12:57:10.780Z,13.30
2022-11-17T12:59:54.678Z,13.20
2022-11-17T13:02:47.480Z,13.30
2022-11-17T13:05:21.469Z,13.50
2022-11-17T13:08:24.908Z,13.60
2022-11-17T13:11:05.573Z,13.40
2022-11-17T13:13:38.791Z,13.30
2022-11-17T13:16:19.892Z,13.40
2022-11-17T13:18:51.746Z,13.50
2022-11-17T13:21:26.375Z,13.60
2022-11-17T13:24:00.512Z,13.60
2022-11-17T13:26:38.473Z,13.60
2022-11-17T13:29:13.394Z,13.60
2022-11-17T13:31:46.181Z,13.70
2022-11-17T13:34:21.297Z,13.70
2022-11-17T13:36:57.247Z,13.70
2022-11-17T13:39:29.378Z,13.60
2022-11-17T13:42:02.417Z,13.60
2022-11-17T13:44:34.713Z,13.80
2022-11-17T13:47:45.621Z,13.90
2022-11-17T13:50:26.738Z,14.00
2022-11-17T13:53:12.488Z,13.90
2022-11-17T13:55:46.294Z,13.90
2022-11-17T13:58:26.687Z,14.00
2022-11-17T14:00:59.693Z,14.00
2022-11-17T14:03:40.092Z,13.90
2022-11-17T14:06:13.785Z,13.80
2022-11-17T14:09:03.250Z,13.70
2022-11-17T14:11:55.308Z,13.60
2022-11-17T14:14:31.480Z,13.60
2022-11-17T14:17:22.405Z,13.50
2022-11-17T14:19:54.419Z,13.40
2022-11-17T14:22:31.318Z,13.40
2022-11-17T14:25:05.698Z,13.40
2022-11-17T14:27:39.715Z,13.50
2022-11-17T14:30:13.436Z,13.50
2022-11-17T14:32:45.483Z,13.50
2022-11-17T14:37:50.397Z,13.60
2022-11-17T14:40:22.414Z,13.70
2022-11-17T14:42:54.402Z,13.70
2022-11-17T14:45:26.338Z,13.70
2022-11-17T14:47:58.335Z,13.60
2022-11-17T14:50:30.268Z,13.30
2022-11-17T14:53:02.325Z,12.90
2022-11-17T14:55:34.361Z,12.70
2022-11-17T14:58:06.324Z,12.50
2022-11-17T15:00:38.221Z,12.50
2022-11-17T15:03:10.273Z,12.50
2022-11-17T15:05:46.305Z,12.50
2022-11-17T15:08:18.275Z,12.50
2022-11-17T15:10:51.405Z,12.60
2022-11-17T15:13:23.456Z,12.60
2022-11-17T15:16:05.465Z,12.60
2022-11-17T15:18:37.495Z,12.60
2022-11-17T15:21:10.953Z,12.60
2022-11-17T15:23:43.530Z,12.50
2022-11-17T15:26:18.810Z,12.50
2022-11-17T15:28:50.881Z,12.40
2022-11-17T15:31:22.744Z,12.30
2022-11-17T15:33:54.721Z,12.20
2022-11-17T15:36:26.729Z,12.20
2022-11-17T15:38:58.709Z,12.20
2022-11-17T15:41:33.006Z,12.20
2022-11-17T15:44:05.394Z,12.20
2022-11-17T15:46:37.405Z,12.30
2022-11-17T15:49:09.360Z,12.30
2022-11-17T15:51:41.584Z,12.40
2022-11-17T15:54:18.395Z,12.40
2022-11-17T15:56:52.159Z,12.30
2022-11-17T15:59:24.036Z,12.20
2022-11-17T16:01:56.096Z,12.30
2022-11-17T16:04:27.981Z,12.30
2022-11-17T16:06:59.868Z,12.30
2022-11-17T16:09:32.106Z,12.30
2022-11-17T16:12:04.621Z,12.10
2022-11-17T16:14:36.584Z,12.10
2022-11-17T16:17:11.247Z,12.10
2022-11-17T16:19:43.265Z,12.20
2022-11-17T16:22:15.164Z,12.20
2022-11-17T16:24:47.112Z,12.20
2022-11-17T16:27:19.021Z,12.20
2022-11-17T16:29:50.990Z,12.20
2022-11-17T16:32:22.894Z,12.10
2022-11-17T16:34:55.076Z,12.10
2022-11-17T16:37:27.442Z,12.10
2022-11-17T16:40:01.352Z,12.10
2022-11-17T16:42:33.411Z,12.10
2022-11-17T16:45:05.810Z,12.20
2022-11-17T16:47:37.881Z,12.10
2022-11-17T16:50:10.066Z,12.00
2022-11-17T16:52:41.974Z,12.10
2022-11-17T16:55:13.885Z,12.20
2022-11-17T16:57:45.899Z,12.20
2022-11-17T17:00:20.543Z,12.10
2022-11-17T17:02:52.522Z,12.10
2022-11-17T17:05:25.761Z,12.00
2022-11-17T17:07:57.817Z,12.00
2022-11-17T17:10:29.684Z,11.90
2022-11-17T17:13:01.773Z,12.00
2022-11-17T17:15:34.077Z,11.90
2022-11-17T17:18:06.236Z,11.90
2022-11-17T17:20:38.326Z,11.90
2022-11-17T17:23:10.260Z,12.00
2022-11-17T17:25:42.305Z,11.90
2022-11-17T17:28:14.395Z,12.00
2022-11-17T17:30:54.158Z,12.00
2022-11-17T17:33:26.944Z,12.10
2022-11-17T17:36:10.210Z,12.00
2022-11-17T17:38:42.928Z,12.00
2022-11-17T17:41:17.232Z,12.00
2022-11-17T17:43:56.297Z,12.00
2022-11-17T17:46:31.967Z,12.00
2022-11-17T17:49:04.260Z,11.90
2022-11-17T17:51:40.021Z,11.90
2022-11-17T17:54:20.165Z,11.90
2022-11-17T17:56:52.848Z,12.00
2022-11-17T17:59:24.735Z,12.00
2022-11-17T18:01:56.710Z,12.10
2022-11-17T18:04:29.513Z,12.10
2022-11-17T18:07:01.680Z,12.10
2022-11-17T18:09:33.818Z,12.10
2022-11-17T18:12:05.905Z,12.10
2022-11-17T18:14:37.790Z,12.10
2022-11-17T18:17:09.666Z,12.00
2022-11-17T18:19:41.610Z,11.90
2022-11-17T18:22:13.804Z,12.00
2022-11-17T18:24:45.946Z,11.90
2022-11-17T18:27:17.891Z,11.90
2022-11-17T18:29:49.880Z,12.00
2022-11-17T18:32:21.783Z,12.00
2022-11-17T18:34:53.652Z,12.00
2022-11-17T18:37:25.972Z,11.80
2022-11-17T18:39:58.105Z,11.70
2022-11-17T18:42:31.997Z,11.80
2022-11-17T18:45:04.481Z,11.70
2022-11-17T18:47:36.441Z,11.70
2022-11-17T18:50:11.552Z,11.70
2022-11-17T18:52:43.566Z,11.80
2022-11-17T18:55:15.469Z,11.70
2022-11-17T18:57:47.362Z,11.60
2022-11-17T19:00:19.420Z,11.60
2022-11-17T19:02:52.470Z,11.70
2022-11-17T19:05:50.289Z,11.70
2022-11-17T19:08:22.882Z,11.70
2022-11-17T19:10:55.338Z,11.70
2022-11-17T19:13:31.183Z,11.70
2022-11-17T19:16:17.486Z,11.80
2022-11-17T19:18:51.970Z,11.90
2022-11-17T19:21:31.033Z,11.90
2022-11-17T19:24:04.508Z,11.90
2022-11-17T19:26:37.026Z,12.00
2022-11-17T19:29:16.706Z,11.80
2022-11-17T19:31:49.637Z,11.80
2022-11-17T19:34:21.622Z,11.80
2022-11-17T19:36:53.611Z,11.90
2022-11-17T19:39:26.205Z,11.90
2022-11-17T19:41:58.088Z,11.90
2022-11-17T19:44:30.164Z,12.00
2022-11-17T19:47:04.566Z,11.90
2022-11-17T19:49:39.196Z,11.70
2022-11-17T19:52:11.232Z,11.70
2022-11-17T19:54:43.097Z,11.60
2022-11-17T19:57:15.106Z,11.60
2022-11-17T19:59:47.043Z,11.50
2022-11-17T20:02:18.978Z,11.50
2022-11-17T20:04:50.932Z,11.50
2022-11-17T20:07:22.917Z,11.50
2022-11-17T20:09:54.863Z,11.60
2022-11-17T20:12:26.701Z,11.60
2022-11-17T20:14:58.762Z,11.60
2022-11-17T20:17:30.600Z,11.70
2022-11-17T20:20:02.508Z,11.80
2022-11-17T20:22:34.601Z,11.80
2022-11-17T20:25:07.265Z,11.70
2022-11-17T20:27:39.269Z,11.70
2022-11-17T20:30:15.196Z,11.70
2022-11-17T20:32:47.425Z,11.60
2022-11-17T20:35:19.329Z,11.80
2022-11-17T20:37:51.199Z,11.80
2022-11-17T20:40:23.129Z,11.80
2022-11-17T20:42:55.524Z,11.70
2022-11-17T20:45:27.364Z,11.60
2022-11-17T20:47:59.196Z,11.60
2022-11-17T20:50:32.024Z,11.60
2022-11-17T20:53:03.893Z,11.60
2022-11-17T20:55:36.912Z,11.60
2022-11-17T20:58:08.929Z,11.60
2022-11-17T21:00:40.902Z,11.60
2022-11-17T21:03:12.926Z,11.60
2022-11-17T21:05:57.046Z,11.60
2022-11-17T21:08:33.236Z,11.60
2022-11-17T21:11:08.104Z,11.60
2022-11-17T21:13:40.015Z,11.60
2022-11-17T21:16:14.365Z,11.60
2022-11-17T21:18:47.730Z,11.60
2022-11-17T21:21:22.974Z,11.60
2022-11-17T21:23:55.562Z,11.60
2022-11-17T21:26:30.307Z,11.70
2022-11-17T21:29:16.933Z,11.70
2022-11-17T21:31:48.904Z,11.80
2022-11-17T21:34:20.839Z,11.90
2022-11-17T21:36:53.588Z,11.90
2022-11-17T21:39:25.445Z,11.90
2022-11-17T21:41:57.367Z,11.80
2022-11-17T21:44:29.411Z,11.60
2022-11-17T21:47:01.305Z,11.50
2022-11-17T21:49:33.264Z,11.50
2022-11-17T21:52:05.300Z,11.40
2022-11-17T21:54:37.448Z,11.40
2022-11-17T21:57:09.504Z,11.30
2022-11-17T21:59:41.384Z,11.30
2022-11-17T22:02:13.420Z,11.30
2022-11-17T22:04:45.365Z,11.40
2022-11-17T22:07:17.355Z,11.40
2022-11-17T22:09:49.251Z,11.40
2022-11-17T22:12:21.194Z,11.50
2022-11-17T22:14:53.134Z,11.60
2022-11-17T22:17:25.038Z,11.60
2022-11-17T22:19:56.948Z,11.70
2022-11-17T22:22:28.808Z,11.70
2022-11-17T22:25:11.645Z,11.80
2022-11-17T22:27:49.071Z,11.90
2022-11-17T22:30:21.025Z,11.80
2022-11-17T22:32:52.873Z,11.70
2022-11-17T22:35:24.819Z,11.60
2022-11-17T22:37:56.686Z,11.60
2022-11-17T22:40:28.519Z,11.60
2022-11-17T22:43:04.270Z,11.60
2022-11-17T22:45:40.017Z,11.60
2022-11-17T22:48:11.912Z,11.60
2022-11-17T22:50:43.773Z,11.50
2022-11-17T22:53:15.651Z,11.50
2022-11-17T22:55:47.555Z,11.40
2022-11-17T22:58:19.856Z,11.40
2022-11-17T23:00:53.058Z,11.60
2022-11-17T23:03:24.991Z,11.60
2022-11-17T23:06:04.867Z,11.70
2022-11-17T23:08:36.820Z,11.70
2022-11-17T23:11:35.467Z,11.60
2022-11-17T23:14:01.788Z,11.60
2022-11-17T23:16:33.855Z,11.50
2022-11-17T23:19:06.560Z,11.50
2022-11-17T23:21:38.417Z,11.50
2022-11-17T23:24:12.831Z,11.60
2022-11-17T23:26:44.952Z,11.60
2022-11-17T23:29:17.041Z,11.60
2022-11-17T23:31:49.268Z,11.60
2022-11-17T23:34:21.221Z,11.60
2022-11-17T23:36:54.026Z,11.60
2022-11-17T23:39:25.905Z,11.60
2022-11-17T23:41:57.849Z,11.70
2022-11-17T23:44:30.265Z,11.60
2022-11-17T23:47:02.135Z,11.50
2022-11-17T23:49:33.983Z,11.50
2022-11-17T23:52:05.860Z,11.50
2022-11-17T23:54:37.755Z,11.60
2022-11-17T23:57:09.561Z,11.60
2022-11-17T23:59:41.538Z,11.60
